sensor_id;sensor_type;location;lat;lon;timestamp;pressure;altitude;pressure_sealevel;temperature;humidity
22580;BME280;11456;47.030;15.396;2023-11-21T00:01:06;97032.84;;;6.01;100.00
22580;BME280;11456;47.030;15.396;2023-11-21T00:03:35;97038.03;;;5.93;100.00
22580;BME280;11456;47.030;15.396;2023-11-21T00:06:02;97039.13;;;5.81;100.00
22580;BME280;11456;47.030;15.396;2023-11-21T00:08:29;97041.19;;;5.68;100.00
22580;BME280;11456;47.030;15.396;2023-11-21T00:10:56;97036.81;;;5.67;100.00
22580;BME280;11456;47.030;15.396;2023-11-21T00:13:23;97036.16;;;5.84;100.00
22580;BME280;11456;47.030;15.396;2023-11-21T00:15:50;97043.03;;;5.77;100.00
22580;BME280;11456;47.030;15.396;2023-11-21T00:18:17;97037.94;;;5.64;100.00
22580;BME280;11456;47.030;15.396;2023-11-21T00:20:44;97041.63;;;5.73;100.00
22580;BME280;11456;47.030;15.396;2023-11-21T00:23:11;97037.94;;;5.54;100.00
22580;BME280;11456;47.030;15.396;2023-11-21T00:25:38;97044.81;;;5.57;100.00
22580;BME280;11456;47.030;15.396;2023-11-21T00:28:04;97033.72;;;5.61;100.00
22580;BME280;11456;47.030;15.396;2023-11-21T00:30:32;97044.13;;;5.64;100.00
22580;BME280;11456;47.030;15.396;2023-11-21T00:32:59;97046.09;;;5.62;100.00
22580;BME280;11456;47.030;15.396;2023-11-21T00:35:26;97047.56;;;5.86;100.00
22580;BME280;11456;47.030;15.396;2023-11-21T00:37:53;97048.44;;;5.96;100.00
22580;BME280;11456;47.030;15.396;2023-11-21T00:40:20;97051.50;;;5.82;100.00
22580;BME280;11456;47.030;15.396;2023-11-21T00:42:47;97041.75;;;5.71;100.00
22580;BME280;11456;47.030;15.396;2023-11-21T00:45:14;97050.78;;;5.80;100.00
22580;BME280;11456;47.030;15.396;2023-11-21T00:47:41;97053.59;;;5.78;100.00
22580;BME280;11456;47.030;15.396;2023-11-21T00:50:09;97053.22;;;6.02;100.00
22580;BME280;11456;47.030;15.396;2023-11-21T00:52:36;97053.53;;;5.99;100.00
22580;BME280;11456;47.030;15.396;2023-11-21T00:55:04;97050.44;;;6.13;100.00
22580;BME280;11456;47.030;15.396;2023-11-21T00:57:34;97050.16;;;6.26;100.00
22580;BME280;11456;47.030;15.396;2023-11-21T01:00:02;97045.66;;;6.46;100.00
22580;BME280;11456;47.030;15.396;2023-11-21T01:02:34;97044.53;;;6.19;100.00
22580;BME280;11456;47.030;15.396;2023-11-21T01:05:02;97047.44;;;5.97;100.00
22580;BME280;11456;47.030;15.396;2023-11-21T01:07:30;97049.28;;;5.96;100.00
22580;BME280;11456;47.030;15.396;2023-11-21T01:09:56;97054.31;;;5.80;100.00
22580;BME280;11456;47.030;15.396;2023-11-21T01:12:23;97045.88;;;5.85;100.00
22580;BME280;11456;47.030;15.396;2023-11-21T01:14:51;97055.34;;;5.89;100.00
22580;BME280;11456;47.030;15.396;2023-11-21T01:17:18;97047.78;;;5.63;100.00
22580;BME280;11456;47.030;15.396;2023-11-21T01:19:45;97042.69;;;6.10;100.00
22580;BME280;11456;47.030;15.396;2023-11-21T01:22:12;97035.09;;;6.06;100.00
22580;BME280;11456;47.030;15.396;2023-11-21T01:24:39;97033.78;;;5.81;100.00
22580;BME280;11456;47.030;15.396;2023-11-21T01:27:05;97032.63;;;5.83;100.00
22580;BME280;11456;47.030;15.396;2023-11-21T01:29:32;97030.69;;;5.85;100.00
22580;BME280;11456;47.030;15.396;2023-11-21T01:31:59;97018.91;;;6.17;100.00
22580;BME280;11456;47.030;15.396;2023-11-21T01:34:25;97023.97;;;6.10;100.00
22580;BME280;11456;47.030;15.396;2023-11-21T01:36:53;97023.41;;;6.16;100.00
22580;BME280;11456;47.030;15.396;2023-11-21T01:39:19;97017.50;;;6.22;100.00
22580;BME280;11456;47.030;15.396;2023-11-21T01:41:50;97020.31;;;6.11;100.00
22580;BME280;11456;47.030;15.396;2023-11-21T01:44:18;97007.66;;;6.13;100.00
22580;BME280;11456;47.030;15.396;2023-11-21T01:46:46;97017.78;;;6.38;100.00
22580;BME280;11456;47.030;15.396;2023-11-21T01:49:15;97018.06;;;6.45;100.00
22580;BME280;11456;47.030;15.396;2023-11-21T01:51:43;97007.66;;;6.32;100.00
22580;BME280;11456;47.030;15.396;2023-11-21T01:54:13;97006.53;;;6.44;100.00
22580;BME280;11456;47.030;15.396;2023-11-21T01:56:46;96996.66;;;6.35;100.00
22580;BME280;11456;47.030;15.396;2023-11-21T01:59:21;96998.38;;;6.36;100.00
22580;BME280;11456;47.030;15.396;2023-11-21T02:01:48;96993.59;;;6.30;100.00
22580;BME280;11456;47.030;15.396;2023-11-21T02:04:18;96988.25;;;6.21;100.00
22580;BME280;11456;47.030;15.396;2023-11-21T02:06:45;96987.38;;;6.30;100.00
22580;BME280;11456;47.030;15.396;2023-11-21T02:09:11;96979.94;;;6.33;100.00
22580;BME280;11456;47.030;15.396;2023-11-21T02:11:41;96982.31;;;6.46;100.00
22580;BME280;11456;47.030;15.396;2023-11-21T02:14:08;96978.53;;;6.39;100.00
22580;BME280;11456;47.030;15.396;2023-11-21T02:16:36;96982.31;;;6.36;100.00
22580;BME280;11456;47.030;15.396;2023-11-21T02:19:07;96984.28;;;6.34;100.00
22580;BME280;11456;47.030;15.396;2023-11-21T02:21:35;96980.34;;;6.29;100.00
22580;BME280;11456;47.030;15.396;2023-11-21T02:24:07;96984.72;;;6.39;100.00
22580;BME280;11456;47.030;15.396;2023-11-21T02:26:34;96981.75;;;6.42;100.00
22580;BME280;11456;47.030;15.396;2023-11-21T02:29:01;96981.44;;;6.55;100.00
22580;BME280;11456;47.030;15.396;2023-11-21T02:31:31;96981.25;;;6.66;100.00
22580;BME280;11456;47.030;15.396;2023-11-21T02:34:00;96975.19;;;6.74;100.00
22580;BME280;11456;47.030;15.396;2023-11-21T02:36:26;96975.25;;;6.64;100.00
22580;BME280;11456;47.030;15.396;2023-11-21T02:38:53;96979.69;;;6.73;100.00
22580;BME280;11456;47.030;15.396;2023-11-21T02:41:20;96977.25;;;6.53;100.00
22580;BME280;11456;47.030;15.396;2023-11-21T02:43:46;96983.72;;;6.50;100.00
22580;BME280;11456;47.030;15.396;2023-11-21T02:46:13;96980.84;;;6.71;100.00
22580;BME280;11456;47.030;15.396;2023-11-21T02:48:40;96983.69;;;6.60;100.00
22580;BME280;11456;47.030;15.396;2023-11-21T02:51:06;96972.69;;;6.63;100.00
22580;BME280;11456;47.030;15.396;2023-11-21T02:53:33;96975.38;;;6.53;100.00
22580;BME280;11456;47.030;15.396;2023-11-21T02:56:01;96975.53;;;6.52;100.00
22580;BME280;11456;47.030;15.396;2023-11-21T02:58:27;96976.97;;;6.46;100.00
22580;BME280;11456;47.030;15.396;2023-11-21T03:00:54;96976.75;;;6.67;100.00
22580;BME280;11456;47.030;15.396;2023-11-21T03:03:20;96981.44;;;6.65;100.00
22580;BME280;11456;47.030;15.396;2023-11-21T03:05:47;96978.53;;;6.95;100.00
22580;BME280;11456;47.030;15.396;2023-11-21T03:08:14;96989.28;;;6.76;100.00
22580;BME280;11456;47.030;15.396;2023-11-21T03:10:41;96982.81;;;6.78;100.00
22580;BME280;11456;47.030;15.396;2023-11-21T03:13:07;96979.38;;;6.96;100.00
22580;BME280;11456;47.030;15.396;2023-11-21T03:15:34;96979.53;;;7.21;100.00
22580;BME280;11456;47.030;15.396;2023-11-21T03:18:03;96990.03;;;7.05;100.00
22580;BME280;11456;47.030;15.396;2023-11-21T03:20:31;96993.19;;;6.91;100.00
22580;BME280;11456;47.030;15.396;2023-11-21T03:22:58;97000.66;;;7.24;100.00
22580;BME280;11456;47.030;15.396;2023-11-21T03:25:26;97000.66;;;7.24;100.00
22580;BME280;11456;47.030;15.396;2023-11-21T03:27:53;97006.31;;;7.21;100.00
22580;BME280;11456;47.030;15.396;2023-11-21T03:30:20;97006.75;;;7.17;100.00
22580;BME280;11456;47.030;15.396;2023-11-21T03:32:47;97001.31;;;6.99;100.00
22580;BME280;11456;47.030;15.396;2023-11-21T03:35:14;97004.63;;;7.20;100.00
22580;BME280;11456;47.030;15.396;2023-11-21T03:37:41;97004.53;;;7.40;100.00
22580;BME280;11456;47.030;15.396;2023-11-21T03:40:09;96998.09;;;7.33;100.00
22580;BME280;11456;47.030;15.396;2023-11-21T03:42:36;96996.84;;;7.54;100.00
22580;BME280;11456;47.030;15.396;2023-11-21T03:45:04;97005.94;;;7.16;100.00
22580;BME280;11456;47.030;15.396;2023-11-21T03:47:31;97004.06;;;7.17;100.00
22580;BME280;11456;47.030;15.396;2023-11-21T03:49:58;96996.78;;;7.09;100.00
22580;BME280;11456;47.030;15.396;2023-11-21T03:52:24;97010.84;;;7.11;100.00
22580;BME280;11456;47.030;15.396;2023-11-21T03:54:51;97015.94;;;7.05;100.00
22580;BME280;11456;47.030;15.396;2023-11-21T03:57:18;97015.94;;;7.05;100.00
22580;BME280;11456;47.030;15.396;2023-11-21T03:59:44;97010.84;;;7.11;100.00
22580;BME280;11456;47.030;15.396;2023-11-21T04:02:11;97027.81;;;7.02;100.00
22580;BME280;11456;47.030;15.396;2023-11-21T04:04:38;97012.09;;;7.54;100.00
22580;BME280;11456;47.030;15.396;2023-11-21T04:07:06;97019.50;;;7.33;100.00
22580;BME280;11456;47.030;15.396;2023-11-21T04:09:32;97017.88;;;7.22;100.00
22580;BME280;11456;47.030;15.396;2023-11-21T04:11:59;97024.59;;;7.36;100.00
22580;BME280;11456;47.030;15.396;2023-11-21T04:14:26;97027.78;;;7.49;100.00
22580;BME280;11456;47.030;15.396;2023-11-21T04:16:53;97023.75;;;7.35;100.00
22580;BME280;11456;47.030;15.396;2023-11-21T04:19:20;97028.59;;;7.12;100.00
22580;BME280;11456;47.030;15.396;2023-11-21T04:21:47;97036.81;;;7.01;100.00
22580;BME280;11456;47.030;15.396;2023-11-21T04:24:14;97033.81;;;7.14;100.00
22580;BME280;11456;47.030;15.396;2023-11-21T04:26:41;97031.09;;;7.23;100.00
22580;BME280;11456;47.030;15.396;2023-11-21T04:29:08;97019.59;;;7.13;100.00
22580;BME280;11456;47.030;15.396;2023-11-21T04:31:34;97021.22;;;6.87;100.00
22580;BME280;11456;47.030;15.396;2023-11-21T04:34:01;97020.91;;;7.00;100.00
22580;BME280;11456;47.030;15.396;2023-11-21T04:36:30;97005.22;;;7.14;100.00
22580;BME280;11456;47.030;15.396;2023-11-21T04:39:01;97005.56;;;6.92;100.00
22580;BME280;11456;47.030;15.396;2023-11-21T04:41:28;97012.47;;;6.95;100.00
22580;BME280;11456;47.030;15.396;2023-11-21T04:43:54;97010.00;;;7.11;100.00
22580;BME280;11456;47.030;15.396;2023-11-21T04:46:21;97011.97;;;7.18;100.00
22580;BME280;11456;47.030;15.396;2023-11-21T04:48:48;97009.66;;;7.23;100.00
22580;BME280;11456;47.030;15.396;2023-11-21T04:51:15;97016.63;;;7.44;100.00
22580;BME280;11456;47.030;15.396;2023-11-21T04:53:41;97022.19;;;7.33;100.00
22580;BME280;11456;47.030;15.396;2023-11-21T04:56:08;97007.19;;;7.12;100.00
22580;BME280;11456;47.030;15.396;2023-11-21T04:58:35;97018.47;;;7.06;100.00
22580;BME280;11456;47.030;15.396;2023-11-21T05:01:02;97018.91;;;7.39;100.00
22580;BME280;11456;47.030;15.396;2023-11-21T05:03:34;97030.53;;;7.30;100.00
22580;BME280;11456;47.030;15.396;2023-11-21T05:06:01;97026.38;;;7.72;100.00
22580;BME280;11456;47.030;15.396;2023-11-21T05:08:28;97028.34;;;7.43;100.00
22580;BME280;11456;47.030;15.396;2023-11-21T05:10:55;97026.50;;;7.43;100.00
22580;BME280;11456;47.030;15.396;2023-11-21T05:13:22;97031.41;;;7.20;100.00
22580;BME280;11456;47.030;15.396;2023-11-21T05:15:54;97028.59;;;7.12;100.00
22580;BME280;11456;47.030;15.396;2023-11-21T05:18:22;97030.84;;;7.17;100.00
22580;BME280;11456;47.030;15.396;2023-11-21T05:20:49;97034.53;;;7.16;100.00
22580;BME280;11456;47.030;15.396;2023-11-21T05:23:16;97039.31;;;7.12;100.00
22580;BME280;11456;47.030;15.396;2023-11-21T05:25:43;97036.38;;;7.43;100.00
22580;BME280;11456;47.030;15.396;2023-11-21T05:28:10;97045.94;;;7.55;100.00
22580;BME280;11456;47.030;15.396;2023-11-21T05:30:36;97042.28;;;7.46;100.00
22580;BME280;11456;47.030;15.396;2023-11-21T05:33:05;97042.84;;;7.50;100.00
22580;BME280;11456;47.030;15.396;2023-11-21T05:35:32;97044.38;;;7.52;100.00
22580;BME280;11456;47.030;15.396;2023-11-21T05:37:58;97043.78;;;7.86;100.00
22580;BME280;11456;47.030;15.396;2023-11-21T05:40:25;97042.78;;;7.59;100.00
22580;BME280;11456;47.030;15.396;2023-11-21T05:42:56;97039.63;;;7.46;100.00
22580;BME280;11456;47.030;15.396;2023-11-21T05:45:22;97045.69;;;7.48;100.00
22580;BME280;11456;47.030;15.396;2023-11-21T05:47:49;97045.69;;;7.48;100.00
22580;BME280;11456;47.030;15.396;2023-11-21T05:50:17;97054.19;;;7.34;100.00
22580;BME280;11456;47.030;15.396;2023-11-21T05:52:46;97052.44;;;7.43;100.00
22580;BME280;11456;47.030;15.396;2023-11-21T05:55:13;97060.19;;;7.46;100.00
22580;BME280;11456;47.030;15.396;2023-11-21T05:57:41;97056.44;;;7.39;100.00
22580;BME280;11456;47.030;15.396;2023-11-21T06:00:10;97064.09;;;7.24;100.00
22580;BME280;11456;47.030;15.396;2023-11-21T06:02:38;97075.09;;;7.21;100.00
22580;BME280;11456;47.030;15.396;2023-11-21T06:05:06;97079.88;;;7.27;100.00
22580;BME280;11456;47.030;15.396;2023-11-21T06:07:34;97088.28;;;7.42;100.00
22580;BME280;11456;47.030;15.396;2023-11-21T06:10:03;97092.53;;;7.35;100.00
22580;BME280;11456;47.030;15.396;2023-11-21T06:12:32;97093.81;;;7.31;100.00
22580;BME280;11456;47.030;15.396;2023-11-21T06:15:03;97088.63;;;7.29;100.00
22580;BME280;11456;47.030;15.396;2023-11-21T06:17:31;97082.69;;;7.35;100.00
22580;BME280;11456;47.030;15.396;2023-11-21T06:19:58;97084.22;;;7.65;100.00
22580;BME280;11456;47.030;15.396;2023-11-21T06:22:25;97084.03;;;7.49;100.00
22580;BME280;11456;47.030;15.396;2023-11-21T06:24:52;97096.16;;;7.43;100.00
22580;BME280;11456;47.030;15.396;2023-11-21T06:27:19;97093.84;;;7.21;100.00
22580;BME280;11456;47.030;15.396;2023-11-21T06:29:46;97089.41;;;7.49;100.00
22580;BME280;11456;47.030;15.396;2023-11-21T06:32:13;97079.06;;;7.54;100.00
22580;BME280;11456;47.030;15.396;2023-11-21T06:34:41;97081.50;;;7.38;100.00
22580;BME280;11456;47.030;15.396;2023-11-21T06:37:07;97084.91;;;7.40;100.00
22580;BME280;11456;47.030;15.396;2023-11-21T06:39:34;97104.94;;;7.36;100.00
22580;BME280;11456;47.030;15.396;2023-11-21T06:42:02;97096.59;;;7.39;100.00
22580;BME280;11456;47.030;15.396;2023-11-21T06:44:28;97097.81;;;7.54;100.00
22580;BME280;11456;47.030;15.396;2023-11-21T06:46:55;97102.16;;;7.92;100.00
22580;BME280;11456;47.030;15.396;2023-11-21T06:49:22;97101.41;;;7.72;100.00
22580;BME280;11456;47.030;15.396;2023-11-21T06:51:49;97111.22;;;7.54;100.00
22580;BME280;11456;47.030;15.396;2023-11-21T06:54:16;97113.50;;;7.49;100.00
22580;BME280;11456;47.030;15.396;2023-11-21T06:56:42;97115.16;;;7.50;100.00
22580;BME280;11456;47.030;15.396;2023-11-21T06:59:09;97105.94;;;7.62;100.00
22580;BME280;11456;47.030;15.396;2023-11-21T07:01:37;97119.53;;;7.51;100.00
22580;BME280;11456;47.030;15.396;2023-11-21T07:04:05;97119.16;;;7.46;100.00
22580;BME280;11456;47.030;15.396;2023-11-21T07:06:33;97118.88;;;7.49;100.00
22580;BME280;11456;47.030;15.396;2023-11-21T07:09:00;97126.34;;;7.45;100.00
22580;BME280;11456;47.030;15.396;2023-11-21T07:11:27;97125.22;;;7.48;100.00
22580;BME280;11456;47.030;15.396;2023-11-21T07:13:54;97117.75;;;7.42;100.00
22580;BME280;11456;47.030;15.396;2023-11-21T07:16:21;97123.13;;;7.69;100.00
22580;BME280;11456;47.030;15.396;2023-11-21T07:18:48;97122.84;;;7.72;100.00
22580;BME280;11456;47.030;15.396;2023-11-21T07:21:16;97123.13;;;7.69;100.00
22580;BME280;11456;47.030;15.396;2023-11-21T07:23:43;97126.13;;;7.66;100.00
22580;BME280;11456;47.030;15.396;2023-11-21T07:26:09;97128.22;;;7.62;100.00
22580;BME280;11456;47.030;15.396;2023-11-21T07:28:37;97133.25;;;7.75;100.00
22580;BME280;11456;47.030;15.396;2023-11-21T07:31:04;97124.63;;;7.81;100.00
22580;BME280;11456;47.030;15.396;2023-11-21T07:33:31;97136.28;;;7.99;100.00
22580;BME280;11456;47.030;15.396;2023-11-21T07:35:57;97134.84;;;8.05;100.00
22580;BME280;11456;47.030;15.396;2023-11-21T07:38:24;97125.72;;;8.16;100.00
22580;BME280;11456;47.030;15.396;2023-11-21T07:40:51;97124.59;;;8.18;100.00
22580;BME280;11456;47.030;15.396;2023-11-21T07:43:17;97124.63;;;8.09;100.00
22580;BME280;11456;47.030;15.396;2023-11-21T07:45:46;97126.09;;;8.03;100.00
22580;BME280;11456;47.030;15.396;2023-11-21T07:48:13;97128.50;;;8.24;100.00
22580;BME280;11456;47.030;15.396;2023-11-21T07:50:39;97120.00;;;8.38;100.00
22580;BME280;11456;47.030;15.396;2023-11-21T07:53:06;97122.59;;;8.48;100.00
22580;BME280;11456;47.030;15.396;2023-11-21T07:55:33;97120.47;;;8.51;100.00
22580;BME280;11456;47.030;15.396;2023-11-21T07:57:59;97128.34;;;8.53;100.00
22580;BME280;11456;47.030;15.396;2023-11-21T08:00:26;97119.22;;;8.63;100.00
22580;BME280;11456;47.030;15.396;2023-11-21T08:02:56;97126.59;;;8.61;100.00
22580;BME280;11456;47.030;15.396;2023-11-21T08:05:23;97123.53;;;8.56;100.00
22580;BME280;11456;47.030;15.396;2023-11-21T08:08:02;97129.88;;;8.28;100.00
22580;BME280;11456;47.030;15.396;2023-11-21T08:10:29;97130.09;;;8.17;100.00
22580;BME280;11456;47.030;15.396;2023-11-21T08:12:56;97125.03;;;8.14;100.00
22580;BME280;11456;47.030;15.396;2023-11-21T08:15:23;97124.28;;;8.31;100.00
22580;BME280;11456;47.030;15.396;2023-11-21T08:17:50;97115.22;;;8.32;100.00
22580;BME280;11456;47.030;15.396;2023-11-21T08:20:17;97115.63;;;8.55;100.00
22580;BME280;11456;47.030;15.396;2023-11-21T08:22:45;97119.66;;;8.41;100.00
22580;BME280;11456;47.030;15.396;2023-11-21T08:25:11;97105.81;;;8.81;100.00
22580;BME280;11456;47.030;15.396;2023-11-21T08:27:39;97116.25;;;9.10;100.00
22580;BME280;11456;47.030;15.396;2023-11-21T08:30:06;97113.38;;;8.85;100.00
22580;BME280;11456;47.030;15.396;2023-11-21T08:32:33;97099.84;;;9.13;100.00
22580;BME280;11456;47.030;15.396;2023-11-21T08:35:01;97102.59;;;9.21;100.00
22580;BME280;11456;47.030;15.396;2023-11-21T08:37:28;97098.28;;;9.28;100.00
22580;BME280;11456;47.030;15.396;2023-11-21T08:39:58;97110.53;;;8.87;100.00
22580;BME280;11456;47.030;15.396;2023-11-21T08:42:28;97110.16;;;9.00;100.00
22580;BME280;11456;47.030;15.396;2023-11-21T08:44:56;97108.44;;;9.42;100.00
22580;BME280;11456;47.030;15.396;2023-11-21T08:47:26;97101.31;;;9.33;100.00
22580;BME280;11456;47.030;15.396;2023-11-21T08:49:53;97099.94;;;9.29;100.00
22580;BME280;11456;47.030;15.396;2023-11-21T08:52:20;97097.44;;;9.53;100.00
22580;BME280;11456;47.030;15.396;2023-11-21T08:54:50;97099.19;;;9.71;100.00
22580;BME280;11456;47.030;15.396;2023-11-21T08:57:22;97102.69;;;10.05;100.00
22580;BME280;11456;47.030;15.396;2023-11-21T08:59:49;97103.22;;;10.09;100.00
22580;BME280;11456;47.030;15.396;2023-11-21T09:02:21;97104.72;;;10.03;100.00
22580;BME280;11456;47.030;15.396;2023-11-21T09:04:49;97094.66;;;10.13;100.00
22580;BME280;11456;47.030;15.396;2023-11-21T09:07:19;97092.22;;;10.28;100.00
22580;BME280;11456;47.030;15.396;2023-11-21T09:09:49;97094.25;;;10.00;100.00
22580;BME280;11456;47.030;15.396;2023-11-21T09:12:17;97101.81;;;9.96;100.00
22580;BME280;11456;47.030;15.396;2023-11-21T09:14:46;97087.50;;;10.22;100.00
22580;BME280;11456;47.030;15.396;2023-11-21T09:17:13;97094.84;;;9.78;100.00
22580;BME280;11456;47.030;15.396;2023-11-21T09:19:40;97095.41;;;9.89;100.00
22580;BME280;11456;47.030;15.396;2023-11-21T09:22:07;97095.25;;;9.99;100.00
22580;BME280;11456;47.030;15.396;2023-11-21T09:24:34;97100.69;;;10.07;100.00
22580;BME280;11456;47.030;15.396;2023-11-21T09:27:03;97093.94;;;10.37;100.00
22580;BME280;11456;47.030;15.396;2023-11-21T09:29:31;97094.28;;;10.42;100.00
22580;BME280;11456;47.030;15.396;2023-11-21T09:31:58;97109.06;;;10.30;100.00
22580;BME280;11456;47.030;15.396;2023-11-21T09:34:27;97100.63;;;9.91;100.00
22580;BME280;11456;47.030;15.396;2023-11-21T09:36:54;97104.25;;;10.16;100.00
22580;BME280;11456;47.030;15.396;2023-11-21T09:39:21;97105.00;;;9.92;100.00
22580;BME280;11456;47.030;15.396;2023-11-21T09:41:52;97094.69;;;9.79;100.00
22580;BME280;11456;47.030;15.396;2023-11-21T09:47:01;97091.91;;;10.05;100.00
22580;BME280;11456;47.030;15.396;2023-11-21T09:49:28;97093.94;;;10.03;100.00
22580;BME280;11456;47.030;15.396;2023-11-21T09:52:01;97098.16;;;10.48;100.00
22580;BME280;11456;47.030;15.396;2023-11-21T09:54:31;97090.09;;;11.29;100.00
22580;BME280;11456;47.030;15.396;2023-11-21T09:57:02;97086.41;;;11.05;100.00
22580;BME280;11456;47.030;15.396;2023-11-21T09:59:30;97096.16;;;10.50;100.00
22580;BME280;11456;47.030;15.396;2023-11-21T10:01:58;97085.00;;;10.36;100.00
22580;BME280;11456;47.030;15.396;2023-11-21T10:04:25;97084.34;;;10.42;100.00
22580;BME280;11456;47.030;15.396;2023-11-21T10:06:54;97074.44;;;10.43;100.00
22580;BME280;11456;47.030;15.396;2023-11-21T10:09:21;97070.69;;;10.28;100.00
22580;BME280;11456;47.030;15.396;2023-11-21T10:11:49;97071.03;;;10.41;100.00
22580;BME280;11456;47.030;15.396;2023-11-21T10:14:19;97077.28;;;10.58;100.00
22580;BME280;11456;47.030;15.396;2023-11-21T10:16:52;97065.84;;;10.64;100.00
22580;BME280;11456;47.030;15.396;2023-11-21T10:19:21;97078.47;;;9.97;100.00
22580;BME280;11456;47.030;15.396;2023-11-21T10:21:47;97074.91;;;9.88;100.00
22580;BME280;11456;47.030;15.396;2023-11-21T10:24:14;97077.16;;;10.09;100.00
22580;BME280;11456;47.030;15.396;2023-11-21T10:26:42;97076.06;;;10.28;100.00
22580;BME280;11456;47.030;15.396;2023-11-21T10:29:18;97075.28;;;10.01;100.00
22580;BME280;11456;47.030;15.396;2023-11-21T10:31:50;97084.03;;;10.12;100.00
22580;BME280;11456;47.030;15.396;2023-11-21T10:34:19;97077.47;;;9.98;100.00
22580;BME280;11456;47.030;15.396;2023-11-21T10:36:46;97085.28;;;10.25;100.00
22580;BME280;11456;47.030;15.396;2023-11-21T10:39:17;97075.09;;;10.53;100.00
22580;BME280;11456;47.030;15.396;2023-11-21T10:41:45;97072.53;;;10.27;100.00
22580;BME280;11456;47.030;15.396;2023-11-21T10:44:16;97060.97;;;10.59;100.00
22580;BME280;11456;47.030;15.396;2023-11-21T10:46:54;97069.03;;;10.43;100.00
22580;BME280;11456;47.030;15.396;2023-11-21T10:49:26;97072.19;;;10.22;100.00
22580;BME280;11456;47.030;15.396;2023-11-21T10:51:54;97069.84;;;10.43;100.00
22580;BME280;11456;47.030;15.396;2023-11-21T10:54:24;97077.94;;;10.52;100.00
22580;BME280;11456;47.030;15.396;2023-11-21T10:56:59;97075.94;;;10.45;100.00
22580;BME280;11456;47.030;15.396;2023-11-21T10:59:29;97077.22;;;10.25;100.00
22580;BME280;11456;47.030;15.396;2023-11-21T11:01:58;97071.63;;;10.11;100.00
22580;BME280;11456;47.030;15.396;2023-11-21T11:04:27;97070.44;;;10.13;100.00
22580;BME280;11456;47.030;15.396;2023-11-21T11:06:57;97070.81;;;10.18;100.00
22580;BME280;11456;47.030;15.396;2023-11-21T11:09:31;97067.06;;;10.03;100.00
22580;BME280;11456;47.030;15.396;2023-11-21T11:12:02;97070.03;;;9.92;100.00
22580;BME280;11456;47.030;15.396;2023-11-21T11:14:29;97067.38;;;10.00;100.00
22580;BME280;11456;47.030;15.396;2023-11-21T11:16:56;97072.19;;;10.22;100.00
22580;BME280;11456;47.030;15.396;2023-11-21T11:19:23;97065.53;;;10.67;100.00
22580;BME280;11456;47.030;15.396;2023-11-21T11:22:12;97065.19;;;10.70;100.00
22580;BME280;11456;47.030;15.396;2023-11-21T11:27:35;97068.22;;;10.59;100.00
22580;BME280;11456;47.030;15.396;2023-11-21T11:32:43;97071.41;;;10.78;100.00
22580;BME280;11456;47.030;15.396;2023-11-21T11:35:19;97064.81;;;10.40;100.00
22580;BME280;11456;47.030;15.396;2023-11-21T11:37:51;97062.81;;;10.42;100.00
22580;BME280;11456;47.030;15.396;2023-11-21T11:40:18;97060.09;;;10.34;100.00
22580;BME280;11456;47.030;15.396;2023-11-21T11:42:57;97058.63;;;10.64;100.00
22580;BME280;11456;47.030;15.396;2023-11-21T11:45:32;97051.91;;;11.01;100.00
22580;BME280;11456;47.030;15.396;2023-11-21T11:48:00;97058.78;;;10.95;100.00
22580;BME280;11456;47.030;15.396;2023-11-21T11:50:27;97062.13;;;10.57;100.00
22580;BME280;11456;47.030;15.396;2023-11-21T11:52:55;97064.47;;;10.27;100.00
22580;BME280;11456;47.030;15.396;2023-11-21T11:55:24;97057.75;;;10.39;100.00
22580;BME280;11456;47.030;15.396;2023-11-21T11:57:53;97050.34;;;10.41;100.00
22580;BME280;11456;47.030;15.396;2023-11-21T12:00:34;97048.84;;;10.63;100.00
22580;BME280;11456;47.030;15.396;2023-11-21T12:03:05;97051.41;;;10.81;100.00
22580;BME280;11456;47.030;15.396;2023-11-21T12:05:35;97054.75;;;10.67;100.00
22580;BME280;11456;47.030;15.396;2023-11-21T12:08:06;97048.00;;;10.63;100.00
22580;BME280;11456;47.030;15.396;2023-11-21T12:10:38;97048.53;;;10.99;100.00
22580;BME280;11456;47.030;15.396;2023-11-21T12:13:07;97046.47;;;11.09;100.00
22580;BME280;11456;47.030;15.396;2023-11-21T12:15:35;97043.63;;;10.54;100.00
22580;BME280;11456;47.030;15.396;2023-11-21T12:18:03;97050.72;;;10.71;100.00
22580;BME280;11456;47.030;15.396;2023-11-21T12:20:30;97047.69;;;10.66;100.00
22580;BME280;11456;47.030;15.396;2023-11-21T12:22:59;97038.56;;;10.51;100.00
22580;BME280;11456;47.030;15.396;2023-11-21T12:25:28;97042.63;;;10.55;100.00
22580;BME280;11456;47.030;15.396;2023-11-21T12:28:09;97035.06;;;10.58;100.00
22580;BME280;11456;47.030;15.396;2023-11-21T12:30:36;97021.75;;;10.57;100.00
22580;BME280;11456;47.030;15.396;2023-11-21T12:33:04;97029.00;;;10.80;100.00
22580;BME280;11456;47.030;15.396;2023-11-21T12:35:34;97023.66;;;11.52;100.00
22580;BME280;11456;47.030;15.396;2023-11-21T12:38:03;97031.78;;;11.36;100.00
22580;BME280;11456;47.030;15.396;2023-11-21T12:40:30;97029.50;;;11.00;100.00
22580;BME280;11456;47.030;15.396;2023-11-21T12:42:59;97027.09;;;11.30;100.00
22580;BME280;11456;47.030;15.396;2023-11-21T12:45:29;97033.69;;;11.03;100.00
22580;BME280;11456;47.030;15.396;2023-11-21T12:48:05;97022.75;;;10.96;100.00
22580;BME280;11456;47.030;15.396;2023-11-21T12:50:38;97019.03;;;11.13;100.00
22580;BME280;11456;47.030;15.396;2023-11-21T12:53:09;97019.41;;;10.70;100.00
22580;BME280;11456;47.030;15.396;2023-11-21T12:55:38;97015.34;;;10.82;100.00
22580;BME280;11456;47.030;15.396;2023-11-21T12:58:07;97009.31;;;10.72;100.00
22580;BME280;11456;47.030;15.396;2023-11-21T13:00:44;97002.19;;;11.03;100.00